Becks Mills, Ohio
Current Conditions -  °F | °C
As of 12:56 PM on Sunday 21 Dec 2014 (Local Time) from KBJJ Reporting Station
Overcast Overcast  
Wind Chill: 29°   Ceiling: 2000
Heat Index: 29°   Visibility: 7mi
Dew Point: 21°   Wind: 3mph
Humidity: 72%   Direction: 170°S
Pressure: 30.27"   Gusts: NA
Location:  40.5444°N, 81.851°W
Report Text: KBJJ 211756Z AUTO 17003KT 7SM OVC020 M02/M06 A3027 RMK AO2 SLP264 T10171061 11011 21022 58015 TSNO
Loading
Personal Weather Stations






























Interactive Weather Map New forecast layout! Learn more

10-Day Weather Forecast

Advertisements
Track Severe Weather on mobile